createdAt,value
2023-03-06T00:00:53.104Z,99566.71
2023-03-06T00:04:19.212Z,99568.02
2023-03-06T00:07:45.338Z,99563.98
2023-03-06T00:11:14.816Z,99563.86
2023-03-06T00:14:40.565Z,99554.20
2023-03-06T00:18:07.075Z,99550.91
2023-03-06T00:21:32.948Z,99544.04
2023-03-06T00:25:00.916Z,99543.51
2023-03-06T00:28:30.988Z,99542.82
2023-03-06T00:31:56.610Z,99547.02
2023-03-06T00:35:22.250Z,99544.21
2023-03-06T00:38:50.074Z,99541.05
2023-03-06T00:42:16.327Z,99539.91
2023-03-06T00:45:42.070Z,99534.02
2023-03-06T00:49:07.797Z,99527.33
2023-03-06T00:52:33.814Z,99523.23
2023-03-06T00:56:01.769Z,99520.23
2023-03-06T00:59:28.724Z,99513.00
2023-03-06T01:02:56.659Z,99512.12
2023-03-06T01:06:22.650Z,99504.05
2023-03-06T01:09:48.202Z,99505.48
2023-03-06T01:13:15.691Z,99500.44
2023-03-06T01:16:41.521Z,99493.09
2023-03-06T01:20:08.203Z,99493.13
2023-03-06T01:23:36.089Z,99491.14
2023-03-06T01:27:02.900Z,99487.89
2023-03-06T01:30:30.775Z,99482.95
2023-03-06T01:33:56.503Z,99484.46
2023-03-06T01:37:22.249Z,99478.92
2023-03-06T01:40:48.080Z,99475.17
2023-03-06T01:44:14.559Z,99470.43
2023-03-06T01:47:41.040Z,99468.87
2023-03-06T01:51:07.838Z,99465.63
2023-03-06T01:54:39.972Z,99460.73
2023-03-06T01:58:08.283Z,99456.42
2023-03-06T02:01:34.466Z,99448.61
2023-03-06T02:05:02.227Z,99445.45
2023-03-06T02:08:28.327Z,99445.83
2023-03-06T02:11:54.081Z,99439.98
2023-03-06T02:15:21.835Z,99435.77
2023-03-06T02:18:47.989Z,99431.11
2023-03-06T02:22:15.947Z,99427.39
2023-03-06T02:25:44.829Z,99425.34
2023-03-06T02:29:11.032Z,99422.40
2023-03-06T02:32:37.202Z,99415.88
2023-03-06T02:36:04.882Z,99413.70
2023-03-06T02:39:33.447Z,99407.37
2023-03-06T02:42:59.824Z,99407.63
2023-03-06T02:46:27.032Z,99402.02
2023-03-06T02:49:53.271Z,99407.89
2023-03-06T02:53:20.206Z,99399.59
2023-03-06T02:56:47.320Z,99397.95
2023-03-06T03:00:14.557Z,99400.04
2023-03-06T03:03:40.724Z,99397.37
2023-03-06T03:07:06.955Z,99390.17
2023-03-06T03:10:33.884Z,99380.91
2023-03-06T03:14:02.882Z,99382.78
2023-03-06T03:17:35.699Z,99384.17
2023-03-06T03:21:02.965Z,99384.05
2023-03-06T03:24:30.345Z,99380.30
2023-03-06T03:27:56.983Z,99381.00
2023-03-06T03:31:24.779Z,99379.84
2023-03-06T03:34:50.660Z,99376.44
2023-03-06T03:38:16.563Z,99373.36
2023-03-06T03:41:42.701Z,99367.45
2023-03-06T03:45:10.204Z,99366.89
2023-03-06T03:48:27.303Z,99362.77
2023-03-06T03:51:55.709Z,99363.33
2023-03-06T03:55:23.153Z,99361.83
2023-03-06T03:58:52.215Z,99359.40
2023-03-06T04:02:27.931Z,99353.58
2023-03-06T04:06:04.594Z,99350.70
2023-03-06T04:09:31.818Z,99348.75
2023-03-06T04:12:58.523Z,99343.09
2023-03-06T04:16:25.218Z,99341.45
2023-03-06T04:19:51.671Z,99334.66
2023-03-06T04:23:18.046Z,99331.39
2023-03-06T04:26:52.161Z,99330.76
2023-03-06T04:30:29.727Z,99323.38
2023-03-06T04:33:58.118Z,99317.09
2023-03-06T04:37:29.670Z,99309.33
2023-03-06T04:40:59.058Z,99309.08
2023-03-06T04:44:25.213Z,99308.63
2023-03-06T04:47:53.854Z,99311.15
2023-03-06T04:51:41.598Z,99302.89
2023-03-06T04:55:14.135Z,99303.05
2023-03-06T04:58:40.453Z,99299.95
2023-03-06T05:02:26.561Z,99294.85
2023-03-06T05:05:55.805Z,99293.50
2023-03-06T05:09:23.768Z,99288.89
2023-03-06T05:12:53.991Z,99285.05
2023-03-06T05:16:45.070Z,99278.59
2023-03-06T05:20:12.811Z,99272.42
2023-03-06T05:23:40.133Z,99268.67
2023-03-06T05:27:27.363Z,99270.13
2023-03-06T05:31:22.631Z,99269.01
2023-03-06T05:34:49.347Z,99268.39
2023-03-06T05:38:37.077Z,99269.19
2023-03-06T05:42:04.465Z,99267.46
2023-03-06T05:45:34.177Z,99260.52
2023-03-06T05:48:59.995Z,99259.99
2023-03-06T05:52:28.847Z,99259.19
2023-03-06T05:56:00.074Z,99253.83
2023-03-06T05:59:46.509Z,99249.10
2023-03-06T06:03:18.451Z,99244.63
2023-03-06T06:07:24.673Z,99248.77
2023-03-06T06:10:53.519Z,99249.00
2023-03-06T06:14:20.284Z,99250.48
2023-03-06T06:18:08.461Z,99243.73
2023-03-06T06:21:35.991Z,99242.21
2023-03-06T06:25:23.705Z,99243.40
2023-03-06T06:28:51.395Z,99248.52
2023-03-06T06:32:17.656Z,99242.50
2023-03-06T06:35:44.082Z,99244.41
2023-03-06T06:39:12.855Z,99245.65
2023-03-06T06:42:40.381Z,99246.77
2023-03-06T06:46:38.831Z,99249.23
2023-03-06T06:49:53.536Z,99242.56
2023-03-06T06:53:19.395Z,99241.39
2023-03-06T06:56:45.362Z,99238.28
2023-03-06T07:00:14.465Z,99231.73
2023-03-06T07:03:40.725Z,99233.02
2023-03-06T07:07:06.465Z,99230.91
2023-03-06T07:10:32.460Z,99227.04
2023-03-06T07:13:58.425Z,99229.59
2023-03-06T07:17:24.341Z,99227.31
2023-03-06T07:20:50.203Z,99226.88
2023-03-06T07:24:16.659Z,99228.69
2023-03-06T07:27:44.324Z,99227.15
2023-03-06T07:31:08.704Z,99227.21
2023-03-06T07:35:27.205Z,99236.99
2023-03-06T07:39:02.677Z,99237.05
2023-03-06T07:42:29.468Z,99235.35
2023-03-06T07:45:58.968Z,99235.70
2023-03-06T07:49:24.990Z,99237.93
2023-03-06T07:52:52.844Z,99238.48
2023-03-06T07:56:18.640Z,99234.05
2023-03-06T07:59:44.397Z,99236.83
2023-03-06T08:03:11.421Z,99237.72
2023-03-06T08:06:37.165Z,99238.66
2023-03-06T08:10:05.191Z,99234.80
2023-03-06T08:13:31.017Z,99232.64
2023-03-06T08:16:57.423Z,99229.86
2023-03-06T08:20:23.458Z,99230.06
2023-03-06T08:23:49.162Z,99228.33
2023-03-06T08:27:15.064Z,99222.34
2023-03-06T08:30:41.056Z,99224.02
2023-03-06T08:34:07.619Z,99224.14
2023-03-06T08:37:33.487Z,99219.98
2023-03-06T08:40:59.441Z,99216.27
2023-03-06T08:45:12.724Z,99221.83
2023-03-06T08:48:12.077Z,99217.44
2023-03-06T08:51:37.886Z,99217.09
2023-03-06T08:55:04.143Z,99220.09
2023-03-06T08:58:30.607Z,99219.33
2023-03-06T09:01:56.276Z,99222.80
2023-03-06T09:05:22.374Z,99220.40
2023-03-06T09:08:56.572Z,99220.09
2023-03-06T09:12:24.671Z,99226.98
2023-03-06T09:15:50.579Z,99233.22
2023-03-06T09:19:16.261Z,99240.95
2023-03-06T09:22:46.152Z,99243.27
2023-03-06T09:26:12.224Z,99246.99
2023-03-06T09:29:37.771Z,99247.36
2023-03-06T09:33:03.394Z,99244.77
2023-03-06T09:36:29.389Z,99243.67
2023-03-06T09:39:55.280Z,99238.56
2023-03-06T09:43:26.666Z,99237.00
2023-03-06T09:47:14.864Z,99229.73
2023-03-06T09:50:45.621Z,99227.46
2023-03-06T09:54:13.328Z,99223.77
2023-03-06T09:57:42.374Z,99224.95
2023-03-06T10:01:13.133Z,99225.20
2023-03-06T10:04:41.501Z,99223.91
2023-03-06T10:08:13.341Z,99224.05
2023-03-06T10:11:40.492Z,99223.44
2023-03-06T10:15:13.169Z,99218.77
2023-03-06T10:18:39.227Z,99218.51
2023-03-06T10:22:07.826Z,99220.57
2023-03-06T10:25:37.973Z,99218.51
2023-03-06T10:29:17.432Z,99218.30
2023-03-06T10:32:49.477Z,99223.30
2023-03-06T10:36:16.266Z,99218.05
2023-03-06T10:39:41.952Z,99225.70
2023-03-06T10:43:12.388Z,99219.02
2023-03-06T10:46:39.384Z,99225.29
2023-03-06T10:50:08.419Z,99216.43
2023-03-06T10:53:34.128Z,99217.89
2023-03-06T10:57:09.430Z,99212.99
2023-03-06T11:00:36.265Z,99211.35
2023-03-06T11:04:15.106Z,99216.55
2023-03-06T11:07:54.753Z,99205.44
2023-03-06T11:11:36.801Z,99206.96
2023-03-06T11:15:21.059Z,99203.52
2023-03-06T11:18:56.485Z,99212.97
2023-03-06T11:22:22.216Z,99209.88
2023-03-06T11:25:50.467Z,99209.45
2023-03-06T11:29:29.376Z,99206.27
2023-03-06T11:32:58.563Z,99203.17
2023-03-06T11:36:27.385Z,99209.52
2023-03-06T11:39:58.084Z,99206.80
2023-03-06T11:43:26.439Z,99208.38
2023-03-06T11:46:54.770Z,99203.80
2023-03-06T11:50:23.639Z,99206.19
2023-03-06T11:53:49.449Z,99210.02
2023-03-06T11:57:16.671Z,99203.27
2023-03-06T12:00:49.662Z,99205.26
2023-03-06T12:04:32.200Z,99204.16
2023-03-06T12:08:03.331Z,99206.16
2023-03-06T12:11:33.377Z,99202.04
2023-03-06T12:15:08.374Z,99205.79
2023-03-06T12:18:46.057Z,99202.10
2023-03-06T12:22:21.439Z,99204.38
2023-03-06T12:25:49.679Z,99198.14
2023-03-06T12:29:23.926Z,99203.21
2023-03-06T12:32:53.629Z,99204.38
2023-03-06T12:36:30.872Z,99202.17
2023-03-06T12:40:23.904Z,99203.23
2023-03-06T12:43:55.252Z,99202.17
2023-03-06T12:47:17.068Z,99200.11
2023-03-06T12:50:28.028Z,99204.96
2023-03-06T12:53:37.242Z,99212.92
2023-03-06T12:56:55.143Z,99203.34
2023-03-06T13:00:40.522Z,99203.25
2023-03-06T13:04:01.527Z,99205.34
2023-03-06T13:07:28.982Z,99200.30
2023-03-06T13:10:40.040Z,99205.88
2023-03-06T13:14:19.475Z,99200.98
2023-03-06T13:17:45.230Z,99197.58
2023-03-06T13:21:25.491Z,99197.57
2023-03-06T13:24:43.354Z,99199.89
2023-03-06T13:28:03.328Z,99198.67
2023-03-06T13:31:24.963Z,99196.17
2023-03-06T13:34:47.873Z,99193.88
2023-03-06T13:38:30.492Z,99193.89
2023-03-06T13:41:58.215Z,99194.44
2023-03-06T13:45:26.872Z,99193.69
2023-03-06T13:48:45.970Z,99190.41
2023-03-06T13:52:09.532Z,99187.76
2023-03-06T13:55:27.625Z,99191.84
2023-03-06T13:59:04.053Z,99191.80
2023-03-06T14:02:42.124Z,99195.86
2023-03-06T14:05:55.367Z,99190.95
2023-03-06T14:09:04.956Z,99190.34
2023-03-06T14:12:25.007Z,99190.05
2023-03-06T14:15:52.205Z,99188.52
2023-03-06T14:19:18.906Z,99190.46
2023-03-06T14:22:37.138Z,99186.94
2023-03-06T14:25:46.291Z,99189.87
2023-03-06T14:29:20.307Z,99192.18
2023-03-06T14:32:49.956Z,99195.73
2023-03-06T14:36:17.527Z,99195.79
2023-03-06T14:39:45.280Z,99196.52
2023-03-06T14:43:14.030Z,99192.63
2023-03-06T14:46:39.869Z,99191.13
2023-03-06T14:50:23.320Z,99195.35
2023-03-06T14:53:42.459Z,99195.79
2023-03-06T14:57:02.668Z,99197.59
2023-03-06T15:00:34.636Z,99193.08
2023-03-06T15:04:01.372Z,99195.54
2023-03-06T15:07:23.488Z,99190.63
2023-03-06T15:10:30.612Z,99190.30
2023-03-06T15:14:03.114Z,99185.20
2023-03-06T15:17:29.706Z,99186.05
2023-03-06T15:20:53.653Z,99183.57
2023-03-06T15:24:29.774Z,99185.18
2023-03-06T15:27:50.524Z,99185.21
2023-03-06T15:31:22.010Z,99183.19
2023-03-06T15:34:49.767Z,99188.25
2023-03-06T15:38:34.825Z,99197.42
2023-03-06T15:41:59.682Z,99194.45
2023-03-06T15:45:36.173Z,99190.85
2023-03-06T15:48:51.864Z,99197.77
2023-03-06T15:52:21.463Z,99191.77
2023-03-06T15:55:37.857Z,99191.67
2023-03-06T15:58:53.555Z,99194.42
2023-03-06T16:02:14.887Z,99194.93
2023-03-06T16:05:31.103Z,99197.72
2023-03-06T16:08:55.653Z,99198.52
2023-03-06T16:12:01.274Z,99198.86
2023-03-06T16:15:20.621Z,99193.21
2023-03-06T16:18:37.805Z,99187.98
2023-03-06T16:21:44.207Z,99198.23
2023-03-06T16:24:52.590Z,99193.25
2023-03-06T16:28:11.209Z,99199.07
2023-03-06T16:31:28.288Z,99200.73
2023-03-06T16:34:34.008Z,99198.48
2023-03-06T16:37:42.604Z,99207.88
2023-03-06T16:40:59.348Z,99207.73
2023-03-06T16:44:11.796Z,99208.14
2023-03-06T16:47:27.898Z,99209.18
2023-03-06T16:50:43.769Z,99209.30
2023-03-06T16:53:55.364Z,99206.73
2023-03-06T16:57:04.217Z,99208.79
2023-03-06T17:00:11.312Z,99212.98
2023-03-06T17:03:20.038Z,99217.15
2023-03-06T17:06:25.723Z,99219.77
2023-03-06T17:09:31.613Z,99222.80
2023-03-06T17:12:37.262Z,99229.23
2023-03-06T17:15:42.828Z,99229.55
2023-03-06T17:18:50.979Z,99234.39
2023-03-06T17:21:56.364Z,99228.89
2023-03-06T17:25:14.687Z,99226.91
2023-03-06T17:28:20.131Z,99226.77
2023-03-06T17:31:47.259Z,99229.90
2023-03-06T17:34:53.099Z,99233.70
2023-03-06T17:38:03.621Z,99236.45
2023-03-06T17:41:18.507Z,99237.00
2023-03-06T17:44:27.137Z,99241.90
2023-03-06T17:47:32.834Z,99247.18
2023-03-06T17:50:38.282Z,99244.77
2023-03-06T17:53:43.632Z,99247.59
2023-03-06T17:56:52.234Z,99248.54
2023-03-06T17:59:57.859Z,99249.35
2023-03-06T18:03:03.426Z,99245.05
2023-03-06T18:06:10.470Z,99242.50
2023-03-06T18:09:15.958Z,99242.13
2023-03-06T18:12:33.189Z,99236.18
2023-03-06T18:15:41.623Z,99239.48
2023-03-06T18:18:52.221Z,99236.71
2023-03-06T18:22:08.527Z,99237.52
2023-03-06T18:25:14.452Z,99239.80
2023-03-06T18:28:20.109Z,99238.50
2023-03-06T18:31:26.713Z,99237.81
2023-03-06T18:34:32.227Z,99243.79
2023-03-06T18:37:37.965Z,99243.08
2023-03-06T18:40:56.780Z,99248.80
2023-03-06T18:44:14.691Z,99249.80
2023-03-06T18:47:20.107Z,99251.09
2023-03-06T18:50:25.554Z,99247.38
2023-03-06T18:53:30.959Z,99254.14
2023-03-06T18:56:36.586Z,99254.77
2023-03-06T18:59:42.017Z,99258.55
2023-03-06T19:02:50.469Z,99259.63
2023-03-06T19:11:04.834Z,99258.51
2023-03-06T19:14:18.062Z,99260.07
2023-03-06T19:17:25.015Z,99263.48
2023-03-06T19:20:30.503Z,99263.23
2023-03-06T19:23:35.954Z,99268.02
2023-03-06T19:26:55.177Z,99273.04
2023-03-06T19:30:00.699Z,99273.05
2023-03-06T19:33:09.094Z,99272.39
2023-03-06T19:36:15.429Z,99274.91
2023-03-06T19:39:22.401Z,99274.77
2023-03-06T19:42:47.997Z,99280.13
2023-03-06T19:46:00.663Z,99282.61
2023-03-06T19:49:11.827Z,99284.91
2023-03-06T19:52:18.207Z,99283.56
2023-03-06T19:55:28.596Z,99287.75
2023-03-06T19:58:34.206Z,99287.52
2023-03-06T20:01:39.761Z,99287.14
2023-03-06T20:04:45.480Z,99281.80
2023-03-06T20:07:51.514Z,99277.19
2023-03-06T20:10:59.851Z,99279.27
2023-03-06T20:14:05.881Z,99281.11
2023-03-06T20:17:11.288Z,99280.95
2023-03-06T20:20:16.853Z,99279.42
2023-03-06T20:23:22.294Z,99283.27
2023-03-06T20:26:28.396Z,99280.17
2023-03-06T20:29:33.983Z,99280.33
2023-03-06T20:32:39.853Z,99282.15
2023-03-06T20:35:48.228Z,99282.83
2023-03-06T20:38:56.969Z,99287.05
2023-03-06T20:42:02.461Z,99282.48
2023-03-06T20:45:08.873Z,99282.09
2023-03-06T20:48:14.203Z,99281.62
2023-03-06T20:51:20.658Z,99282.40
2023-03-06T20:54:26.316Z,99286.07
2023-03-06T20:57:31.882Z,99285.88
2023-03-06T21:00:37.426Z,99283.90
2023-03-06T21:03:42.859Z,99283.65
2023-03-06T21:06:48.250Z,99283.17
2023-03-06T21:09:53.784Z,99278.26
2023-03-06T21:12:59.539Z,99279.85
2023-03-06T21:16:09.759Z,99284.73
2023-03-06T21:19:15.288Z,99285.23
2023-03-06T21:22:20.980Z,99283.71
2023-03-06T21:25:26.455Z,99285.65
2023-03-06T21:28:31.956Z,99282.13
2023-03-06T21:31:37.450Z,99279.93
2023-03-06T21:34:52.293Z,99275.63
2023-03-06T21:37:57.935Z,99277.33
2023-03-06T21:41:08.949Z,99277.85
2023-03-06T21:44:14.477Z,99270.99
2023-03-06T21:47:20.012Z,99273.66
2023-03-06T21:50:28.782Z,99273.17
2023-03-06T21:53:37.031Z,99275.55
2023-03-06T21:56:44.826Z,99274.05
2023-03-06T21:59:55.713Z,99272.98
2023-03-06T22:03:04.869Z,99272.98
2023-03-06T22:06:14.226Z,99272.45
2023-03-06T22:09:20.067Z,99274.94
2023-03-06T22:12:27.852Z,99270.44
2023-03-06T22:15:35.504Z,99275.86
2023-03-06T22:18:46.637Z,99271.30
2023-03-06T22:21:56.675Z,99270.52
2023-03-06T22:25:06.043Z,99274.00
2023-03-06T22:28:31.980Z,99270.17
2023-03-06T22:31:39.898Z,99272.02
2023-03-06T22:34:47.956Z,99273.41
2023-03-06T22:38:04.687Z,99269.04
2023-03-06T22:41:13.843Z,99269.43
2023-03-06T22:44:20.267Z,99262.52
2023-03-06T22:47:25.638Z,99263.14
2023-03-06T22:50:31.119Z,99260.48
2023-03-06T22:53:39.546Z,99255.82
2023-03-06T22:56:44.923Z,99253.23
2023-03-06T22:59:50.484Z,99256.05
2023-03-06T23:02:56.030Z,99253.94
2023-03-06T23:06:01.403Z,99252.35
2023-03-06T23:09:08.000Z,99245.91
2023-03-06T23:12:31.863Z,99239.73
2023-03-06T23:15:56.134Z,99234.33
2023-03-06T23:19:20.072Z,99234.00
2023-03-06T23:22:44.272Z,99230.92
2023-03-06T23:26:09.322Z,99228.48
2023-03-06T23:29:14.916Z,99223.92
2023-03-06T23:32:20.588Z,99220.81
2023-03-06T23:35:26.128Z,99222.66
2023-03-06T23:38:35.146Z,99225.33
2023-03-06T23:41:40.992Z,99220.98
2023-03-06T23:44:50.087Z,99221.95
2023-03-06T23:47:57.830Z,99226.34
2023-03-06T23:51:05.794Z,99225.09
2023-03-06T23:54:11.595Z,99222.13
2023-03-06T23:57:17.525Z,99219.55
